sensor_id;sensor_type;location;lat;lon;timestamp;pressure;altitude;pressure_sealevel;temperature;humidity
5146;BME280;2591;48.144;15.152;2023-04-30T00:01:45;75798.91;;;-144.65;88.33
5146;BME280;2591;48.144;15.152;2023-04-30T00:04:14;75800.97;;;-144.65;87.32
5146;BME280;2591;48.144;15.152;2023-04-30T00:06:42;75805.03;;;-144.65;86.37
5146;BME280;2591;48.144;15.152;2023-04-30T00:09:10;75811.16;;;-144.65;86.84
5146;BME280;2591;48.144;15.152;2023-04-30T00:11:38;75817.25;;;-144.65;86.37
5146;BME280;2591;48.144;15.152;2023-04-30T00:14:06;75817.25;;;-144.65;84.99
5146;BME280;2591;48.144;15.152;2023-04-30T00:16:33;75811.16;;;-144.65;83.48
5146;BME280;2591;48.144;15.152;2023-04-30T00:19:01;75803.00;;;-144.65;82.05
5146;BME280;2591;48.144;15.152;2023-04-30T00:21:30;75807.06;;;-144.65;82.19
5146;BME280;2591;48.144;15.152;2023-04-30T00:23:59;75809.13;;;-144.65;83.26
5146;BME280;2591;48.144;15.152;2023-04-30T00:26:27;75809.13;;;-144.65;83.32
5146;BME280;2591;48.144;15.152;2023-04-30T00:28:54;75813.19;;;-144.65;82.59
5146;BME280;2591;48.144;15.152;2023-04-30T00:31:22;75813.19;;;-144.65;82.63
5146;BME280;2591;48.144;15.152;2023-04-30T00:33:50;75821.34;;;-144.65;82.96
5146;BME280;2591;48.144;15.152;2023-04-30T00:36:18;75821.34;;;-144.65;82.14
5146;BME280;2591;48.144;15.152;2023-04-30T00:38:47;75831.53;;;-144.65;84.66
5146;BME280;2591;48.144;15.152;2023-04-30T00:41:15;75845.81;;;-144.65;86.92
5146;BME280;2591;48.144;15.152;2023-04-30T00:43:43;75853.97;;;-144.65;87.77
5146;BME280;2591;48.144;15.152;2023-04-30T00:46:12;75851.91;;;-144.65;85.89
5146;BME280;2591;48.144;15.152;2023-04-30T00:48:40;75856.00;;;-144.65;88.29
5146;BME280;2591;48.144;15.152;2023-04-30T00:51:08;75868.22;;;-144.65;90.25
5146;BME280;2591;48.144;15.152;2023-04-30T00:53:36;75880.47;;;-144.65;91.03
5146;BME280;2591;48.144;15.152;2023-04-30T00:56:07;75890.66;;;-144.65;92.28
5146;BME280;2591;48.144;15.152;2023-04-30T00:58:35;75898.81;;;-144.65;93.59
5146;BME280;2591;48.144;15.152;2023-04-30T01:01:04;75906.97;;;-144.65;93.74
5146;BME280;2591;48.144;15.152;2023-04-30T01:03:32;75911.03;;;-144.65;94.07
5146;BME280;2591;48.144;15.152;2023-04-30T01:06:02;75915.13;;;-144.65;94.29
5146;BME280;2591;48.144;15.152;2023-04-30T01:08:30;75913.09;;;-144.65;94.89
5146;BME280;2591;48.144;15.152;2023-04-30T01:11:16;75919.19;;;-144.65;94.33
5146;BME280;2591;48.144;15.152;2023-04-30T01:13:52;75929.41;;;-144.65;95.69
5146;BME280;2591;48.144;15.152;2023-04-30T01:16:25;75927.34;;;-144.65;96.61
5146;BME280;2591;48.144;15.152;2023-04-30T01:18:56;75931.44;;;-144.65;96.63
5146;BME280;2591;48.144;15.152;2023-04-30T01:21:26;75939.59;;;-144.65;98.12
5146;BME280;2591;48.144;15.152;2023-04-30T01:27:13;75935.50;;;-144.65;93.96
5146;BME280;2591;48.144;15.152;2023-04-30T01:29:43;75931.44;;;-144.65;94.12
5146;BME280;2591;48.144;15.152;2023-04-30T01:32:11;75949.78;;;-144.65;94.34
5146;BME280;2591;48.144;15.152;2023-04-30T01:34:39;75959.97;;;-144.65;94.19
5146;BME280;2591;48.144;15.152;2023-04-30T01:37:15;75968.13;;;-144.65;95.32
5146;BME280;2591;48.144;15.152;2023-04-30T01:39:57;75974.25;;;-144.65;95.30
5146;BME280;2591;48.144;15.152;2023-04-30T01:42:32;75972.22;;;-144.65;94.93
5146;BME280;2591;48.144;15.152;2023-04-30T01:45:25;75982.41;;;-144.65;95.75
5146;BME280;2591;48.144;15.152;2023-04-30T01:48:00;75980.34;;;-144.65;95.49
5146;BME280;2591;48.144;15.152;2023-04-30T01:50:36;75988.50;;;-144.65;96.09
5146;BME280;2591;48.144;15.152;2023-04-30T01:53:06;75992.59;;;-144.65;96.30
5146;BME280;2591;48.144;15.152;2023-04-30T01:55:40;75996.66;;;-144.65;95.67
5146;BME280;2591;48.144;15.152;2023-04-30T01:58:11;76002.78;;;-144.65;96.25
5146;BME280;2591;48.144;15.152;2023-04-30T02:00:41;76008.91;;;-144.65;96.60
5146;BME280;2591;48.144;15.152;2023-04-30T02:03:09;76004.81;;;-144.65;97.07
5146;BME280;2591;48.144;15.152;2023-04-30T02:05:37;76008.91;;;-144.65;97.10
5146;BME280;2591;48.144;15.152;2023-04-30T02:08:05;76015.03;;;-144.65;98.06
5146;BME280;2591;48.144;15.152;2023-04-30T02:10:33;76021.13;;;-144.65;97.18
5146;BME280;2591;48.144;15.152;2023-04-30T02:13:01;76017.06;;;-144.65;97.97
5146;BME280;2591;48.144;15.152;2023-04-30T02:15:29;76027.25;;;-144.65;98.68
5146;BME280;2591;48.144;15.152;2023-04-30T02:17:58;76029.28;;;-144.65;97.96
5146;BME280;2591;48.144;15.152;2023-04-30T02:20:26;76035.41;;;-144.65;97.43
5146;BME280;2591;48.144;15.152;2023-04-30T02:22:54;76035.41;;;-144.65;96.65
5146;BME280;2591;48.144;15.152;2023-04-30T02:25:21;76035.41;;;-144.65;96.80
5146;BME280;2591;48.144;15.152;2023-04-30T02:27:49;76033.38;;;-144.65;97.57
5146;BME280;2591;48.144;15.152;2023-04-30T02:30:17;76037.44;;;-144.65;98.41
5146;BME280;2591;48.144;15.152;2023-04-30T02:32:46;76041.53;;;-144.65;99.03
5146;BME280;2591;48.144;15.152;2023-04-30T02:35:15;76041.53;;;-144.65;99.13
5146;BME280;2591;48.144;15.152;2023-04-30T02:37:43;76041.53;;;-144.65;99.90
5146;BME280;2591;48.144;15.152;2023-04-30T02:40:11;76045.59;;;-144.65;99.50
5146;BME280;2591;48.144;15.152;2023-04-30T02:42:39;76051.72;;;-144.65;98.27
5146;BME280;2591;48.144;15.152;2023-04-30T02:45:07;76047.63;;;-144.65;97.18
5146;BME280;2591;48.144;15.152;2023-04-30T02:47:35;76055.78;;;-144.65;98.52
5146;BME280;2591;48.144;15.152;2023-04-30T02:50:04;76053.75;;;-144.65;99.07
5146;BME280;2591;48.144;15.152;2023-04-30T02:52:33;76068.03;;;-144.65;100.00
5146;BME280;2591;48.144;15.152;2023-04-30T02:55:01;76076.19;;;-144.65;100.00
5146;BME280;2591;48.144;15.152;2023-04-30T02:57:29;76066.00;;;-144.65;100.00
5146;BME280;2591;48.144;15.152;2023-04-30T02:59:57;76066.00;;;-144.65;100.00
5146;BME280;2591;48.144;15.152;2023-04-30T03:02:25;76070.06;;;-144.65;100.00
5146;BME280;2591;48.144;15.152;2023-04-30T03:04:53;76076.19;;;-144.65;100.00
5146;BME280;2591;48.144;15.152;2023-04-30T03:07:21;76082.28;;;-144.65;100.00
5146;BME280;2591;48.144;15.152;2023-04-30T03:09:50;76084.34;;;-144.65;100.00
5146;BME280;2591;48.144;15.152;2023-04-30T03:12:18;76076.19;;;-144.65;100.00
5146;BME280;2591;48.144;15.152;2023-04-30T03:14:46;76086.38;;;-144.65;100.00
5146;BME280;2591;48.144;15.152;2023-04-30T03:17:13;76088.41;;;-144.65;100.00
5146;BME280;2591;48.144;15.152;2023-04-30T03:19:42;76100.66;;;-144.65;100.00
5146;BME280;2591;48.144;15.152;2023-04-30T03:22:10;76102.69;;;-144.65;100.00
5146;BME280;2591;48.144;15.152;2023-04-30T03:24:37;76106.75;;;-144.65;100.00
5146;BME280;2591;48.144;15.152;2023-04-30T03:27:07;76102.69;;;-144.65;100.00
5146;BME280;2591;48.144;15.152;2023-04-30T03:29:34;76102.69;;;-144.65;100.00
5146;BME280;2591;48.144;15.152;2023-04-30T03:32:03;76106.75;;;-144.65;100.00
5146;BME280;2591;48.144;15.152;2023-04-30T03:34:30;76110.84;;;-144.65;100.00
5146;BME280;2591;48.144;15.152;2023-04-30T03:36:58;76114.91;;;-144.65;100.00
5146;BME280;2591;48.144;15.152;2023-04-30T03:39:27;76116.97;;;-144.65;100.00
5146;BME280;2591;48.144;15.152;2023-04-30T03:41:55;76114.91;;;-144.65;100.00
5146;BME280;2591;48.144;15.152;2023-04-30T03:44:24;76116.97;;;-144.65;100.00
5146;BME280;2591;48.144;15.152;2023-04-30T03:46:51;76119.00;;;-144.65;100.00
5146;BME280;2591;48.144;15.152;2023-04-30T03:49:19;76119.00;;;-144.65;100.00
5146;BME280;2591;48.144;15.152;2023-04-30T03:51:47;76114.91;;;-144.65;100.00
5146;BME280;2591;48.144;15.152;2023-04-30T03:54:15;76119.00;;;-144.65;100.00
5146;BME280;2591;48.144;15.152;2023-04-30T03:56:43;76119.00;;;-144.65;100.00
5146;BME280;2591;48.144;15.152;2023-04-30T03:59:10;76119.00;;;-144.65;100.00
5146;BME280;2591;48.144;15.152;2023-04-30T04:01:40;76125.13;;;-144.65;100.00
5146;BME280;2591;48.144;15.152;2023-04-30T04:04:08;76127.16;;;-144.65;100.00
5146;BME280;2591;48.144;15.152;2023-04-30T04:06:36;76123.06;;;-144.65;100.00
5146;BME280;2591;48.144;15.152;2023-04-30T04:09:04;76127.16;;;-144.65;100.00
5146;BME280;2591;48.144;15.152;2023-04-30T04:11:32;76123.06;;;-144.65;100.00
5146;BME280;2591;48.144;15.152;2023-04-30T04:13:59;76129.19;;;-144.65;100.00
5146;BME280;2591;48.144;15.152;2023-04-30T04:16:27;76131.22;;;-144.65;100.00
5146;BME280;2591;48.144;15.152;2023-04-30T04:18:57;76131.22;;;-144.65;100.00
5146;BME280;2591;48.144;15.152;2023-04-30T04:21:24;76131.22;;;-144.65;100.00
5146;BME280;2591;48.144;15.152;2023-04-30T04:23:52;76129.19;;;-144.65;100.00
5146;BME280;2591;48.144;15.152;2023-04-30T04:26:20;76133.25;;;-144.65;100.00
5146;BME280;2591;48.144;15.152;2023-04-30T04:28:51;76131.22;;;-144.65;100.00
5146;BME280;2591;48.144;15.152;2023-04-30T04:31:18;76143.47;;;-144.65;100.00
5146;BME280;2591;48.144;15.152;2023-04-30T04:33:48;76145.50;;;-144.65;100.00
5146;BME280;2591;48.144;15.152;2023-04-30T04:36:17;76139.38;;;-144.65;100.00
5146;BME280;2591;48.144;15.152;2023-04-30T04:38:45;76133.25;;;-144.65;100.00
5146;BME280;2591;48.144;15.152;2023-04-30T04:41:13;76139.38;;;-144.65;100.00
5146;BME280;2591;48.144;15.152;2023-04-30T04:43:41;76145.50;;;-144.65;100.00
5146;BME280;2591;48.144;15.152;2023-04-30T04:46:09;76151.63;;;-144.65;100.00
5146;BME280;2591;48.144;15.152;2023-04-30T04:48:39;76143.47;;;-144.65;100.00
5146;BME280;2591;48.144;15.152;2023-04-30T04:51:08;76141.41;;;-144.65;100.00
5146;BME280;2591;48.144;15.152;2023-04-30T04:53:37;76139.38;;;-144.65;100.00
5146;BME280;2591;48.144;15.152;2023-04-30T04:56:06;76139.38;;;-144.65;100.00
5146;BME280;2591;48.144;15.152;2023-04-30T04:58:34;76139.38;;;-144.65;100.00
5146;BME280;2591;48.144;15.152;2023-04-30T05:01:02;76143.47;;;-144.65;100.00
5146;BME280;2591;48.144;15.152;2023-04-30T05:03:30;76131.22;;;-144.65;100.00
5146;BME280;2591;48.144;15.152;2023-04-30T05:05:58;76135.31;;;-144.65;100.00
5146;BME280;2591;48.144;15.152;2023-04-30T05:08:26;76131.22;;;-144.65;100.00
5146;BME280;2591;48.144;15.152;2023-04-30T05:10:55;76129.19;;;-144.65;100.00
5146;BME280;2591;48.144;15.152;2023-04-30T05:13:23;76114.91;;;-144.65;100.00
5146;BME280;2591;48.144;15.152;2023-04-30T05:15:52;76110.84;;;-144.65;100.00
5146;BME280;2591;48.144;15.152;2023-04-30T05:18:21;76108.81;;;-144.65;100.00
5146;BME280;2591;48.144;15.152;2023-04-30T05:20:48;76110.84;;;-144.65;100.00
5146;BME280;2591;48.144;15.152;2023-04-30T05:23:16;76110.84;;;-144.65;100.00
5146;BME280;2591;48.144;15.152;2023-04-30T05:25:44;76106.75;;;-144.65;100.00
5146;BME280;2591;48.144;15.152;2023-04-30T05:28:13;76102.69;;;-144.65;100.00
5146;BME280;2591;48.144;15.152;2023-04-30T05:30:41;76094.53;;;-144.65;100.00
5146;BME280;2591;48.144;15.152;2023-04-30T05:33:09;76090.44;;;-144.65;100.00
5146;BME280;2591;48.144;15.152;2023-04-30T05:35:37;76080.25;;;-144.65;100.00
5146;BME280;2591;48.144;15.152;2023-04-30T05:38:04;76078.22;;;-144.65;100.00
5146;BME280;2591;48.144;15.152;2023-04-30T05:40:32;76066.00;;;-144.65;100.00
5146;BME280;2591;48.144;15.152;2023-04-30T05:43:00;76059.88;;;-144.65;100.00
5146;BME280;2591;48.144;15.152;2023-04-30T05:45:29;76061.91;;;-144.65;100.00
5146;BME280;2591;48.144;15.152;2023-04-30T05:47:57;76053.75;;;-144.65;100.00
5146;BME280;2591;48.144;15.152;2023-04-30T05:50:25;76051.72;;;-144.65;100.00
5146;BME280;2591;48.144;15.152;2023-04-30T05:52:52;76053.75;;;-144.65;100.00
5146;BME280;2591;48.144;15.152;2023-04-30T05:55:20;76045.59;;;-144.65;100.00
5146;BME280;2591;48.144;15.152;2023-04-30T05:57:48;76031.31;;;-144.65;100.00
5146;BME280;2591;48.144;15.152;2023-04-30T06:00:16;76025.22;;;-144.65;100.00
5146;BME280;2591;48.144;15.152;2023-04-30T06:02:45;76029.28;;;-144.65;100.00
5146;BME280;2591;48.144;15.152;2023-04-30T06:05:13;76033.38;;;-144.65;100.00
5146;BME280;2591;48.144;15.152;2023-04-30T06:07:42;76029.28;;;-144.65;100.00
5146;BME280;2591;48.144;15.152;2023-04-30T06:10:09;76025.22;;;-144.65;100.00
5146;BME280;2591;48.144;15.152;2023-04-30T06:12:38;76015.03;;;-144.65;100.00
5146;BME280;2591;48.144;15.152;2023-04-30T06:15:06;76004.81;;;-144.65;100.00
5146;BME280;2591;48.144;15.152;2023-04-30T06:17:34;75996.66;;;-144.65;100.00
5146;BME280;2591;48.144;15.152;2023-04-30T06:20:04;75986.47;;;-144.65;100.00
5146;BME280;2591;48.144;15.152;2023-04-30T06:22:33;75984.44;;;-144.65;100.00
5146;BME280;2591;48.144;15.152;2023-04-30T06:25:00;75974.25;;;-144.65;100.00
5146;BME280;2591;48.144;15.152;2023-04-30T06:27:28;75970.16;;;-144.65;100.00
5146;BME280;2591;48.144;15.152;2023-04-30T06:29:58;75959.97;;;-144.65;100.00
5146;BME280;2591;48.144;15.152;2023-04-30T06:32:26;75968.13;;;-144.65;100.00
5146;BME280;2591;48.144;15.152;2023-04-30T06:34:54;75962.00;;;-144.65;100.00
5146;BME280;2591;48.144;15.152;2023-04-30T06:37:26;75955.91;;;-144.65;100.00
5146;BME280;2591;48.144;15.152;2023-04-30T06:39:54;75945.69;;;-144.65;100.00
5146;BME280;2591;48.144;15.152;2023-04-30T06:42:22;75931.44;;;-144.65;100.00
5146;BME280;2591;48.144;15.152;2023-04-30T06:44:50;75923.28;;;-144.65;100.00
5146;BME280;2591;48.144;15.152;2023-04-30T06:47:18;75917.16;;;-144.65;100.00
5146;BME280;2591;48.144;15.152;2023-04-30T06:49:45;75911.03;;;-144.65;99.55
5146;BME280;2591;48.144;15.152;2023-04-30T06:52:13;75894.75;;;-144.65;99.23
5146;BME280;2591;48.144;15.152;2023-04-30T06:54:42;75894.75;;;-144.65;98.12
5146;BME280;2591;48.144;15.152;2023-04-30T06:57:10;75880.47;;;-144.65;98.98
5146;BME280;2591;48.144;15.152;2023-04-30T06:59:38;75898.81;;;-144.65;97.02
5146;BME280;2591;48.144;15.152;2023-04-30T07:02:06;75894.75;;;-144.65;97.39
5146;BME280;2591;48.144;15.152;2023-04-30T07:04:34;75878.44;;;-144.65;96.81
5146;BME280;2591;48.144;15.152;2023-04-30T07:07:02;75853.97;;;-144.65;97.07
5146;BME280;2591;48.144;15.152;2023-04-30T07:09:30;75839.69;;;-144.65;95.56
5146;BME280;2591;48.144;15.152;2023-04-30T07:11:59;75831.53;;;-144.65;93.70
5146;BME280;2591;48.144;15.152;2023-04-30T07:14:27;75837.66;;;-144.65;90.76
5146;BME280;2591;48.144;15.152;2023-04-30T07:16:55;75829.50;;;-144.65;89.86
5146;BME280;2591;48.144;15.152;2023-04-30T07:19:23;75821.34;;;-144.65;87.56
5146;BME280;2591;48.144;15.152;2023-04-30T07:21:52;75811.16;;;-144.65;85.38
5146;BME280;2591;48.144;15.152;2023-04-30T07:24:20;75788.72;;;-144.65;85.93
5146;BME280;2591;48.144;15.152;2023-04-30T07:26:48;75796.88;;;-144.65;81.55
5146;BME280;2591;48.144;15.152;2023-04-30T07:29:17;75782.59;;;-144.65;82.59
5146;BME280;2591;48.144;15.152;2023-04-30T07:31:45;75788.72;;;-144.65;80.67
5146;BME280;2591;48.144;15.152;2023-04-30T07:34:13;75780.56;;;-144.65;80.05
5146;BME280;2591;48.144;15.152;2023-04-30T07:36:41;75780.56;;;-144.65;76.86
5146;BME280;2591;48.144;15.152;2023-04-30T07:39:09;75774.47;;;-144.65;76.22
5146;BME280;2591;48.144;15.152;2023-04-30T07:41:37;75780.56;;;-144.65;76.66
5146;BME280;2591;48.144;15.152;2023-04-30T07:44:05;75772.41;;;-144.65;77.04
5146;BME280;2591;48.144;15.152;2023-04-30T07:46:34;75768.34;;;-144.65;77.19
5146;BME280;2591;48.144;15.152;2023-04-30T07:49:02;75770.38;;;-144.65;78.50
5146;BME280;2591;48.144;15.152;2023-04-30T07:51:30;75756.09;;;-144.65;78.79
5146;BME280;2591;48.144;15.152;2023-04-30T07:53:59;75741.84;;;-144.65;77.88
5146;BME280;2591;48.144;15.152;2023-04-30T07:56:27;75731.66;;;-144.65;76.92
5146;BME280;2591;48.144;15.152;2023-04-30T07:58:55;75707.19;;;-144.65;77.95
5146;BME280;2591;48.144;15.152;2023-04-30T08:01:23;75678.63;;;-144.65;76.76
5146;BME280;2591;48.144;15.152;2023-04-30T08:03:52;75676.59;;;-144.65;77.03
5146;BME280;2591;48.144;15.152;2023-04-30T08:06:20;75694.94;;;-144.65;73.21
5146;BME280;2591;48.144;15.152;2023-04-30T08:08:48;75713.28;;;-144.65;72.42
5146;BME280;2591;48.144;15.152;2023-04-30T08:11:16;75721.44;;;-144.65;74.33
5146;BME280;2591;48.144;15.152;2023-04-30T08:13:43;75717.38;;;-144.65;75.39
5146;BME280;2591;48.144;15.152;2023-04-30T08:16:13;75686.78;;;-144.65;73.79
5146;BME280;2591;48.144;15.152;2023-04-30T08:18:41;75682.72;;;-144.65;75.20
5146;BME280;2591;48.144;15.152;2023-04-30T08:21:13;75654.19;;;-144.65;74.56
5146;BME280;2591;48.144;15.152;2023-04-30T08:23:41;75662.34;;;-144.65;73.56
5146;BME280;2591;48.144;15.152;2023-04-30T08:26:08;75656.22;;;-144.65;75.27
5146;BME280;2591;48.144;15.152;2023-04-30T08:28:36;75646.03;;;-144.65;73.21
5146;BME280;2591;48.144;15.152;2023-04-30T08:31:04;75662.34;;;-144.65;71.66
5146;BME280;2591;48.144;15.152;2023-04-30T08:33:32;75666.41;;;-144.65;73.11
5146;BME280;2591;48.144;15.152;2023-04-30T08:35:59;75650.09;;;-144.65;73.19
5146;BME280;2591;48.144;15.152;2023-04-30T08:38:29;75650.09;;;-144.65;72.20
5146;BME280;2591;48.144;15.152;2023-04-30T08:41:04;75654.19;;;-144.65;73.33
5146;BME280;2591;48.144;15.152;2023-04-30T08:43:33;75650.09;;;-144.65;74.34
5146;BME280;2591;48.144;15.152;2023-04-30T08:46:02;75650.09;;;-144.65;73.72
5146;BME280;2591;48.144;15.152;2023-04-30T08:48:30;75641.94;;;-144.65;70.06
5146;BME280;2591;48.144;15.152;2023-04-30T08:50:59;75656.22;;;-144.65;71.02
5146;BME280;2591;48.144;15.152;2023-04-30T08:53:30;75646.03;;;-144.65;71.38
5146;BME280;2591;48.144;15.152;2023-04-30T08:55:59;75641.94;;;-144.65;71.66
5146;BME280;2591;48.144;15.152;2023-04-30T08:58:27;75641.94;;;-144.65;69.63
5146;BME280;2591;48.144;15.152;2023-04-30T09:00:56;75641.94;;;-144.65;71.19
5146;BME280;2591;48.144;15.152;2023-04-30T09:03:24;75625.63;;;-144.65;71.04
5146;BME280;2591;48.144;15.152;2023-04-30T09:05:54;75613.41;;;-144.65;71.60
5146;BME280;2591;48.144;15.152;2023-04-30T09:08:42;75597.09;;;-144.65;68.60
5146;BME280;2591;48.144;15.152;2023-04-30T09:11:21;75613.41;;;-144.65;66.52
5146;BME280;2591;48.144;15.152;2023-04-30T09:13:50;75625.63;;;-144.65;66.37
5146;BME280;2591;48.144;15.152;2023-04-30T09:16:19;75646.03;;;-144.65;67.57
5146;BME280;2591;48.144;15.152;2023-04-30T09:18:47;75635.84;;;-144.65;70.01
5146;BME280;2591;48.144;15.152;2023-04-30T09:21:15;75617.50;;;-144.65;70.06
5146;BME280;2591;48.144;15.152;2023-04-30T09:23:55;75605.25;;;-144.65;68.18
5146;BME280;2591;48.144;15.152;2023-04-30T09:26:39;75599.13;;;-144.65;69.64
5146;BME280;2591;48.144;15.152;2023-04-30T09:29:07;75599.13;;;-144.65;66.75
5146;BME280;2591;48.144;15.152;2023-04-30T09:31:36;75609.34;;;-144.65;68.39
5146;BME280;2591;48.144;15.152;2023-04-30T09:34:05;75613.41;;;-144.65;67.90
5146;BME280;2591;48.144;15.152;2023-04-30T09:36:33;75621.56;;;-144.65;66.26
5146;BME280;2591;48.144;15.152;2023-04-30T09:39:06;75654.19;;;-144.65;69.26
5146;BME280;2591;48.144;15.152;2023-04-30T09:41:41;75662.34;;;-144.65;70.36
5146;BME280;2591;48.144;15.152;2023-04-30T09:44:25;75664.38;;;-144.65;69.13
5146;BME280;2591;48.144;15.152;2023-04-30T09:46:55;75672.53;;;-144.65;69.42
5146;BME280;2591;48.144;15.152;2023-04-30T09:49:24;75666.41;;;-144.65;68.50
5146;BME280;2591;48.144;15.152;2023-04-30T09:51:53;75674.56;;;-144.65;68.84
5146;BME280;2591;48.144;15.152;2023-04-30T09:54:24;75670.50;;;-144.65;68.45
5146;BME280;2591;48.144;15.152;2023-04-30T09:56:53;75670.50;;;-144.65;68.29
5146;BME280;2591;48.144;15.152;2023-04-30T09:59:25;75682.72;;;-144.65;69.80
5146;BME280;2591;48.144;15.152;2023-04-30T10:01:58;75656.22;;;-144.65;69.24
5146;BME280;2591;48.144;15.152;2023-04-30T10:04:28;75641.94;;;-144.65;67.86
5146;BME280;2591;48.144;15.152;2023-04-30T10:06:58;75633.78;;;-144.65;67.07
5146;BME280;2591;48.144;15.152;2023-04-30T10:09:33;75637.88;;;-144.65;67.31
5146;BME280;2591;48.144;15.152;2023-04-30T10:12:04;75625.63;;;-144.65;66.83
5146;BME280;2591;48.144;15.152;2023-04-30T10:14:34;75617.50;;;-144.65;67.16
5146;BME280;2591;48.144;15.152;2023-04-30T10:17:05;75597.09;;;-144.65;66.56
5146;BME280;2591;48.144;15.152;2023-04-30T10:19:38;75570.59;;;-144.65;65.09
5146;BME280;2591;48.144;15.152;2023-04-30T10:22:08;75597.09;;;-144.65;66.50
5146;BME280;2591;48.144;15.152;2023-04-30T10:24:37;75584.88;;;-144.65;66.07
5146;BME280;2591;48.144;15.152;2023-04-30T10:27:05;75572.63;;;-144.65;64.04
5146;BME280;2591;48.144;15.152;2023-04-30T10:29:33;75580.78;;;-144.65;64.19
5146;BME280;2591;48.144;15.152;2023-04-30T10:32:01;75584.88;;;-144.65;64.62
5146;BME280;2591;48.144;15.152;2023-04-30T10:34:37;75570.59;;;-144.65;63.73
5146;BME280;2591;48.144;15.152;2023-04-30T10:37:14;75544.09;;;-144.65;64.35
5146;BME280;2591;48.144;15.152;2023-04-30T10:39:49;75523.72;;;-144.65;64.14
5146;BME280;2591;48.144;15.152;2023-04-30T10:42:18;75523.72;;;-144.65;63.92
5146;BME280;2591;48.144;15.152;2023-04-30T10:44:45;75517.59;;;-144.65;63.19
5146;BME280;2591;48.144;15.152;2023-04-30T10:47:15;75515.56;;;-144.65;63.38
5146;BME280;2591;48.144;15.152;2023-04-30T10:49:45;75507.41;;;-144.65;64.49
5146;BME280;2591;48.144;15.152;2023-04-30T10:52:25;75478.88;;;-144.65;62.75
5146;BME280;2591;48.144;15.152;2023-04-30T10:54:54;75480.91;;;-144.65;64.09
5146;BME280;2591;48.144;15.152;2023-04-30T10:57:22;75419.75;;;-144.65;63.29
5146;BME280;2591;48.144;15.152;2023-04-30T10:59:52;75344.34;;;-144.65;62.70
5146;BME280;2591;48.144;15.152;2023-04-30T11:02:21;75291.34;;;-144.65;61.47
5146;BME280;2591;48.144;15.152;2023-04-30T11:05:07;75244.47;;;-144.65;57.52
5146;BME280;2591;48.144;15.152;2023-04-30T11:07:35;75197.56;;;-144.65;55.87
5146;BME280;2591;48.144;15.152;2023-04-30T11:10:06;75242.41;;;-144.65;55.42
5146;BME280;2591;48.144;15.152;2023-04-30T11:12:40;75266.88;;;-144.65;58.33
5146;BME280;2591;48.144;15.152;2023-04-30T11:15:12;75213.88;;;-144.65;57.59
5146;BME280;2591;48.144;15.152;2023-04-30T11:17:44;75136.44;;;-144.65;56.40
5146;BME280;2591;48.144;15.152;2023-04-30T11:20:15;75160.88;;;-144.65;55.31
5146;BME280;2591;48.144;15.152;2023-04-30T11:22:45;75222.03;;;-144.65;57.25
5146;BME280;2591;48.144;15.152;2023-04-30T11:25:18;75250.56;;;-144.65;55.84
5146;BME280;2591;48.144;15.152;2023-04-30T11:27:46;75305.59;;;-144.65;57.78
5146;BME280;2591;48.144;15.152;2023-04-30T11:30:15;75330.06;;;-144.65;57.27
5146;BME280;2591;48.144;15.152;2023-04-30T11:32:45;75358.59;;;-144.65;57.60
5146;BME280;2591;48.144;15.152;2023-04-30T11:35:16;75397.34;;;-144.65;58.69
5146;BME280;2591;48.144;15.152;2023-04-30T11:37:46;75385.09;;;-144.65;57.32
5146;BME280;2591;48.144;15.152;2023-04-30T11:40:16;75381.03;;;-144.65;58.26
5146;BME280;2591;48.144;15.152;2023-04-30T11:42:49;75368.78;;;-144.65;56.76
5146;BME280;2591;48.144;15.152;2023-04-30T11:45:17;75383.06;;;-144.65;58.48
5146;BME280;2591;48.144;15.152;2023-04-30T11:47:47;75364.72;;;-144.65;55.83
5146;BME280;2591;48.144;15.152;2023-04-30T11:50:17;75387.13;;;-144.65;56.15
5146;BME280;2591;48.144;15.152;2023-04-30T11:52:51;75385.09;;;-144.65;56.27
5146;BME280;2591;48.144;15.152;2023-04-30T11:55:21;75407.53;;;-144.65;56.45
5146;BME280;2591;48.144;15.152;2023-04-30T11:57:51;75385.09;;;-144.65;56.19
5146;BME280;2591;48.144;15.152;2023-04-30T12:00:25;75381.03;;;-144.65;56.25
5146;BME280;2591;48.144;15.152;2023-04-30T12:02:53;75368.78;;;-144.65;56.97
5146;BME280;2591;48.144;15.152;2023-04-30T12:05:23;75352.50;;;-144.65;55.69
5146;BME280;2591;48.144;15.152;2023-04-30T12:07:54;75352.50;;;-144.65;57.84
5146;BME280;2591;48.144;15.152;2023-04-30T12:10:23;75328.03;;;-144.65;57.15
5146;BME280;2591;48.144;15.152;2023-04-30T12:12:52;75256.69;;;-144.65;56.33
5146;BME280;2591;48.144;15.152;2023-04-30T12:15:22;75224.06;;;-144.65;55.69
5146;BME280;2591;48.144;15.152;2023-04-30T12:17:56;75238.34;;;-144.65;56.09
5146;BME280;2591;48.144;15.152;2023-04-30T12:20:25;75258.72;;;-144.65;55.07
5146;BME280;2591;48.144;15.152;2023-04-30T12:22:54;75311.72;;;-144.65;57.18
5146;BME280;2591;48.144;15.152;2023-04-30T12:25:22;75303.56;;;-144.65;55.81
5146;BME280;2591;48.144;15.152;2023-04-30T12:27:53;75344.34;;;-144.65;57.08
5146;BME280;2591;48.144;15.152;2023-04-30T12:30:24;75332.09;;;-144.65;56.52
5146;BME280;2591;48.144;15.152;2023-04-30T12:32:58;75358.59;;;-144.65;55.53
5146;BME280;2591;48.144;15.152;2023-04-30T12:35:27;75393.25;;;-144.65;55.94
5146;BME280;2591;48.144;15.152;2023-04-30T12:38:04;75413.66;;;-144.65;56.93
5146;BME280;2591;48.144;15.152;2023-04-30T12:40:32;75397.34;;;-144.65;56.05
5146;BME280;2591;48.144;15.152;2023-04-30T12:43:03;75407.53;;;-144.65;56.13
5146;BME280;2591;48.144;15.152;2023-04-30T12:45:50;75429.94;;;-144.65;57.11
5146;BME280;2591;48.144;15.152;2023-04-30T12:48:19;75444.22;;;-144.65;58.91
5146;BME280;2591;48.144;15.152;2023-04-30T12:50:51;75405.50;;;-144.65;56.29
5146;BME280;2591;48.144;15.152;2023-04-30T12:53:19;75387.13;;;-144.65;54.78
5146;BME280;2591;48.144;15.152;2023-04-30T12:56:06;75401.41;;;-144.65;56.83
5146;BME280;2591;48.144;15.152;2023-04-30T12:58:37;75381.03;;;-144.65;55.27
5146;BME280;2591;48.144;15.152;2023-04-30T13:01:09;75354.53;;;-144.65;55.05
5146;BME280;2591;48.144;15.152;2023-04-30T13:03:38;75346.38;;;-144.65;54.56